Time;durP1;ratioP1;P1;durP2;ratioP2;P2;SDS_P1;SDS_P2;PMS_P1;PMS_P2;Temp;Humidity;BMP_temperature;BMP_pressure;BME280_temperature;BME280_humidity;BME280_pressure;Samples;Min_cycle;Max_cycle;Signal;HPM_P1;HPM_P2
2022/07/26 00:01:13;;;;;;;11.07;3.03;;;19.40;99.90;;;;;;5065686;28;20043;-62
2022/07/26 00:03:39;;;;;;;15.40;4.22;;;19.40;99.90;;;;;;5083753;28;20377;-63
2022/07/26 00:06:05;;;;;;;12.48;3.30;;;19.40;99.90;;;;;;5087108;28;20068;-61
2022/07/26 00:08:30;;;;;;;13.32;3.63;;;19.40;99.90;;;;;;5080561;28;20467;-62
2022/07/26 00:10:56;;;;;;;17.27;3.67;;;19.30;99.90;;;;;;5082547;28;20094;-62
2022/07/26 00:13:22;;;;;;;13.20;3.58;;;19.30;99.90;;;;;;5084119;28;20032;-62
2022/07/26 00:15:48;;;;;;;16.33;3.53;;;19.30;99.90;;;;;;5083780;28;20042;-63
2022/07/26 00:18:15;;;;;;;17.77;3.20;;;19.20;99.90;;;;;;5083286;28;20047;-62
2022/07/26 00:20:41;;;;;;;12.20;3.10;;;19.30;99.90;;;;;;5082782;28;20068;-62
2022/07/26 00:23:07;;;;;;;13.57;3.55;;;19.20;99.90;;;;;;5059496;28;20087;-62
2022/07/26 00:25:33;;;;;;;13.63;3.78;;;19.20;99.90;;;;;;5065622;28;20044;-62
2022/07/26 00:27:59;;;;;;;14.38;3.40;;;19.20;99.90;;;;;;5063264;28;20045;-63
2022/07/26 00:30:25;;;;;;;14.27;3.83;;;19.10;99.90;;;;;;5062299;28;20051;-61
2022/07/26 00:32:51;;;;;;;13.85;3.17;;;19.00;99.90;;;;;;5064468;28;20024;-63
2022/07/26 00:35:18;;;;;;;13.65;3.45;;;19.00;99.90;;;;;;5062453;28;20036;-62
2022/07/26 00:37:44;;;;;;;14.02;3.60;;;18.90;99.90;;;;;;5060921;28;20041;-62
2022/07/26 00:40:10;;;;;;;14.65;3.63;;;18.90;99.90;;;;;;5062116;28;20044;-62
2022/07/26 00:42:36;;;;;;;18.10;3.88;;;18.90;99.90;;;;;;5062857;28;20075;-62
2022/07/26 00:45:03;;;;;;;17.50;4.10;;;18.90;99.90;;;;;;5063139;28;20465;-61
2022/07/26 00:47:29;;;;;;;15.75;3.30;;;18.90;99.90;;;;;;5063712;28;20037;-61
2022/07/26 00:49:54;;;;;;;12.35;3.38;;;18.80;99.90;;;;;;5058874;28;20037;-63
2022/07/26 00:52:20;;;;;;;14.05;3.92;;;18.80;99.90;;;;;;5060755;28;20103;-63
2022/07/26 00:54:46;;;;;;;17.75;3.70;;;18.80;99.90;;;;;;5062790;28;20048;-62
2022/07/26 00:57:13;;;;;;;14.40;3.55;;;18.80;99.90;;;;;;5062738;28;20073;-62
2022/07/26 00:59:39;;;;;;;12.85;3.78;;;18.70;99.90;;;;;;5062019;28;20586;-62
2022/07/26 01:02:06;;;;;;;14.32;3.88;;;18.70;99.90;;;;;;5063493;28;20041;-62
2022/07/26 01:04:33;;;;;;;16.15;3.70;;;18.70;99.90;;;;;;5060472;28;20075;-62
2022/07/26 01:06:58;;;;;;;17.38;4.47;;;18.70;99.90;;;;;;5064759;28;20044;-62
2022/07/26 01:09:24;;;;;;;12.85;3.40;;;18.60;99.90;;;;;;5061244;28;20361;-62
2022/07/26 01:11:50;;;;;;;16.20;4.25;;;18.60;99.90;;;;;;5059431;28;20119;-62
2022/07/26 01:14:20;;;;;;;17.23;3.97;;;18.60;99.90;;;;;;5062607;28;20037;-62
2022/07/26 01:16:46;;;;;;;14.30;3.60;;;18.60;99.90;;;;;;5063409;28;20044;-62
2022/07/26 01:19:11;;;;;;;14.85;3.90;;;18.60;99.90;;;;;;5059475;28;20044;-63
2022/07/26 01:21:37;;;;;;;15.32;4.20;;;18.50;99.90;;;;;;5060608;28;20024;-64
2022/07/26 01:24:03;;;;;;;17.17;4.32;;;18.50;99.90;;;;;;5078701;28;20048;-62
2022/07/26 01:26:29;;;;;;;12.98;4.07;;;18.50;99.90;;;;;;5082842;28;20032;-62
2022/07/26 01:28:55;;;;;;;13.90;3.80;;;18.40;99.90;;;;;;5082582;28;20417;-62
2022/07/26 01:31:20;;;;;;;12.35;3.38;;;18.40;99.90;;;;;;5082763;28;20090;-62
2022/07/26 01:33:46;;;;;;;13.48;3.45;;;18.40;99.90;;;;;;5078991;28;20075;-62
2022/07/26 01:36:12;;;;;;;13.23;3.50;;;18.40;99.90;;;;;;5082078;28;20054;-63
2022/07/26 01:38:40;;;;;;;13.07;3.67;;;18.40;99.90;;;;;;5080099;28;20449;-62
2022/07/26 01:41:06;;;;;;;20.20;3.90;;;18.30;99.90;;;;;;5080126;28;20046;-62
2022/07/26 01:43:32;;;;;;;15.13;4.07;;;18.30;99.90;;;;;;5080580;28;20035;-62
2022/07/26 01:45:57;;;;;;;12.40;4.10;;;18.30;99.90;;;;;;5062194;28;20041;-62
2022/07/26 01:48:23;;;;;;;12.05;3.85;;;18.30;99.90;;;;;;5081407;28;20036;-62
2022/07/26 01:50:49;;;;;;;12.15;3.88;;;18.20;99.90;;;;;;5045907;28;20063;-62
2022/07/26 01:53:15;;;;;;;15.20;3.90;;;18.20;99.90;;;;;;5079529;28;20107;-62
2022/07/26 01:55:40;;;;;;;14.73;3.58;;;18.20;99.90;;;;;;5083790;28;20474;-62
2022/07/26 01:58:07;;;;;;;15.43;4.00;;;18.20;99.90;;;;;;5081168;28;20740;-62
2022/07/26 02:00:33;;;;;;;11.93;3.88;;;18.20;99.90;;;;;;5062929;28;20111;-62
2022/07/26 02:03:00;;;;;;;16.08;3.90;;;18.20;99.90;;;;;;5081597;28;20411;-61
2022/07/26 02:05:25;;;;;;;13.75;3.90;;;18.20;99.90;;;;;;5084384;28;20139;-62
2022/07/26 02:07:51;;;;;;;14.45;3.72;;;18.20;99.90;;;;;;5080455;28;20131;-63
2022/07/26 02:10:17;;;;;;;14.75;3.35;;;18.10;99.90;;;;;;5079961;28;20063;-62
2022/07/26 02:12:42;;;;;;;12.55;3.70;;;18.30;99.90;;;;;;5080671;28;20029;-62
2022/07/26 02:15:09;;;;;;;10.57;3.17;;;18.30;99.90;;;;;;5080834;28;20369;-62
2022/07/26 02:17:36;;;;;;;11.20;3.08;;;18.30;99.90;;;;;;5081931;28;20471;-62
2022/07/26 02:20:04;;;;;;;9.38;3.35;;;18.40;99.90;;;;;;5062243;28;20119;-61
2022/07/26 02:22:30;;;;;;;11.38;3.20;;;18.40;99.90;;;;;;5060720;28;20094;-60
2022/07/26 02:24:55;;;;;;;15.98;3.22;;;18.40;99.90;;;;;;5082184;28;20048;-61
2022/07/26 02:27:21;;;;;;;8.35;2.78;;;18.50;99.90;;;;;;5083058;28;20036;-62
2022/07/26 02:29:46;;;;;;;11.73;3.17;;;18.50;99.90;;;;;;5062187;28;20051;-61
2022/07/26 02:32:12;;;;;;;11.50;3.92;;;18.50;99.90;;;;;;5082586;28;20082;-62
2022/07/26 02:34:38;;;;;;;11.00;3.38;;;18.60;99.90;;;;;;5079718;28;20036;-62
2022/07/26 02:37:04;;;;;;;7.25;2.20;;;18.60;99.90;;;;;;5069283;28;20166;-61
2022/07/26 02:39:31;;;;;;;7.85;2.63;;;18.70;99.90;;;;;;5066048;28;20044;-62
2022/07/26 02:41:58;;;;;;;6.47;2.28;;;18.60;99.90;;;;;;5066544;28;20067;-62
2022/07/26 02:44:25;;;;;;;12.20;2.83;;;18.70;99.90;;;;;;5084129;28;20044;-62
2022/07/26 02:46:52;;;;;;;8.90;3.30;;;18.60;99.90;;;;;;5087526;28;20051;-62
2022/07/26 02:49:19;;;;;;;9.85;2.60;;;18.70;99.90;;;;;;5084125;28;20039;-62
2022/07/26 02:51:45;;;;;;;7.22;2.50;;;18.70;99.90;;;;;;5083436;28;20036;-62
2022/07/26 02:54:11;;;;;;;7.72;2.70;;;18.70;99.90;;;;;;5084086;28;20032;-63
2022/07/26 02:56:37;;;;;;;8.35;2.88;;;18.70;99.90;;;;;;5084914;28;20040;-62
2022/07/26 02:59:03;;;;;;;9.68;2.80;;;18.70;99.90;;;;;;5083542;28;20430;-62
2022/07/26 03:01:28;;;;;;;4.63;2.50;;;18.70;99.90;;;;;;5086354;28;20043;-61
2022/07/26 03:03:54;;;;;;;7.30;2.08;;;18.70;99.90;;;;;;5084542;28;20033;-61
2022/07/26 03:06:20;;;;;;;7.65;2.65;;;18.70;99.90;;;;;;5085910;28;20032;-61
2022/07/26 03:08:46;;;;;;;4.82;2.33;;;18.70;99.90;;;;;;5083484;28;20047;-62
2022/07/26 03:11:12;;;;;;;9.27;2.70;;;18.60;99.90;;;;;;5082282;28;20037;-63
2022/07/26 03:13:38;;;;;;;9.30;2.67;;;18.60;99.90;;;;;;5085159;28;20028;-62
2022/07/26 03:16:05;;;;;;;7.43;2.60;;;18.60;99.90;;;;;;5085306;28;20041;-63
2022/07/26 03:18:31;;;;;;;6.85;2.95;;;18.50;99.90;;;;;;5083888;28;20119;-61
2022/07/26 03:20:57;;;;;;;5.28;2.47;;;18.50;99.90;;;;;;5083209;28;20123;-61
2022/07/26 03:23:22;;;;;;;6.72;3.00;;;18.60;99.90;;;;;;5065562;28;20473;-63
2022/07/26 03:25:48;;;;;;;6.43;2.75;;;18.60;99.90;;;;;;5084832;28;20048;-61
2022/07/26 03:28:14;;;;;;;8.38;2.90;;;18.60;99.90;;;;;;5084902;28;20115;-61
2022/07/26 03:30:40;;;;;;;7.32;2.88;;;18.60;99.90;;;;;;5084954;28;20024;-61
2022/07/26 03:33:05;;;;;;;5.50;2.40;;;18.50;99.90;;;;;;5083700;28;20558;-61
2022/07/26 03:35:31;;;;;;;5.97;2.00;;;18.50;99.90;;;;;;5084414;28;20055;-61
2022/07/26 03:37:56;;;;;;;7.30;2.60;;;18.40;99.90;;;;;;5081572;28;20032;-62
2022/07/26 03:40:22;;;;;;;4.65;2.05;;;18.30;99.90;;;;;;5082857;28;20032;-62
2022/07/26 03:42:48;;;;;;;3.65;2.20;;;18.20;99.90;;;;;;5085610;28;20421;-61
2022/07/26 03:45:14;;;;;;;5.75;2.10;;;18.10;99.90;;;;;;5082769;28;20044;-63
2022/07/26 03:47:40;;;;;;;7.40;2.65;;;18.10;99.90;;;;;;5084135;28;20044;-62
2022/07/26 03:50:07;;;;;;;6.93;2.83;;;18.10;99.90;;;;;;5065062;28;20264;-62
2022/07/26 03:52:33;;;;;;;7.78;2.35;;;18.00;99.90;;;;;;5081022;28;20353;-65
2022/07/26 03:54:59;;;;;;;5.05;2.17;;;17.90;99.90;;;;;;5083912;28;20103;-64
2022/07/26 03:57:25;;;;;;;5.72;2.30;;;17.90;99.90;;;;;;5084021;28;20119;-65
2022/07/26 03:59:50;;;;;;;5.45;2.60;;;17.90;99.90;;;;;;5064588;28;20043;-64
2022/07/26 04:02:16;;;;;;;5.72;2.65;;;17.90;99.90;;;;;;5085208;28;20043;-63
2022/07/26 04:04:42;;;;;;;7.70;2.53;;;17.80;99.90;;;;;;5080023;28;20033;-63
2022/07/26 04:07:08;;;;;;;5.15;2.80;;;17.90;99.90;;;;;;5082938;28;20036;-64
2022/07/26 04:09:33;;;;;;;7.43;2.42;;;17.90;99.90;;;;;;5064695;28;20071;-64
2022/07/26 04:11:59;;;;;;;4.72;2.40;;;17.90;99.90;;;;;;5082202;28;20405;-63
2022/07/26 04:14:25;;;;;;;7.93;2.30;;;17.90;99.90;;;;;;5083915;28;20037;-64
2022/07/26 04:16:51;;;;;;;7.43;2.25;;;17.90;99.90;;;;;;5066064;28;20036;-65
2022/07/26 04:19:16;;;;;;;6.53;2.53;;;17.80;99.90;;;;;;5063569;28;20114;-64
2022/07/26 04:21:42;;;;;;;5.78;2.35;;;17.80;99.90;;;;;;5064036;28;20060;-63
2022/07/26 04:24:08;;;;;;;5.40;2.47;;;17.80;99.90;;;;;;5083999;28;20052;-63
2022/07/26 04:26:34;;;;;;;7.45;2.47;;;17.80;99.90;;;;;;5084572;28;20119;-65
2022/07/26 04:29:02;;;;;;;9.70;2.63;;;17.70;99.90;;;;;;5082620;28;20127;-63
2022/07/26 04:31:28;;;;;;;8.30;2.50;;;17.80;99.90;;;;;;5067033;28;20115;-65
2022/07/26 04:33:53;;;;;;;8.88;2.60;;;17.80;99.90;;;;;;5080334;28;20621;-64
2022/07/26 04:36:19;;;;;;;7.32;2.65;;;17.80;99.90;;;;;;5062997;28;20082;-63
2022/07/26 04:38:45;;;;;;;8.90;2.63;;;17.80;99.90;;;;;;5061612;28;20102;-64
2022/07/26 04:41:11;;;;;;;7.07;2.65;;;17.70;99.90;;;;;;5067194;28;20116;-64
2022/07/26 04:43:37;;;;;;;7.25;2.30;;;17.70;99.90;;;;;;5070076;28;20116;-64
2022/07/26 04:46:02;;;;;;;8.80;2.63;;;17.70;99.90;;;;;;5048598;28;20339;-64
2022/07/26 04:48:28;;;;;;;6.47;2.50;;;17.80;99.90;;;;;;5082332;28;20418;-64
2022/07/26 04:50:54;;;;;;;7.00;2.63;;;17.70;99.90;;;;;;5063385;28;20028;-64
2022/07/26 04:53:20;;;;;;;6.47;2.00;;;17.70;99.90;;;;;;5084185;28;20085;-65
2022/07/26 04:55:46;;;;;;;7.60;2.38;;;17.70;99.90;;;;;;5085430;28;20616;-64
2022/07/26 04:58:12;;;;;;;5.47;2.00;;;17.70;99.90;;;;;;5079954;28;20046;-65
2022/07/26 05:00:38;;;;;;;6.93;2.22;;;17.80;99.90;;;;;;5062312;28;20123;-63
2022/07/26 05:03:03;;;;;;;8.48;2.35;;;17.70;99.90;;;;;;5079948;28;20050;-63
2022/07/26 05:05:31;;;;;;;6.05;1.90;;;17.80;99.90;;;;;;5080976;28;20093;-64
2022/07/26 05:07:59;;;;;;;6.80;2.33;;;17.80;99.90;;;;;;5080279;28;20048;-63
2022/07/26 05:10:34;;;;;;;10.25;2.50;;;17.80;99.90;;;;;;5064073;28;20044;-63
2022/07/26 05:13:02;;;;;;;9.27;2.20;;;17.90;99.90;;;;;;5069683;28;20040;-65
2022/07/26 05:15:29;;;;;;;7.63;2.10;;;17.90;99.90;;;;;;5058424;28;20051;-64
2022/07/26 05:17:59;;;;;;;9.05;2.28;;;17.90;99.90;;;;;;5079703;28;20039;-65
2022/07/26 05:20:26;;;;;;;5.07;1.90;;;17.90;99.90;;;;;;5064768;28;20040;-64
2022/07/26 05:22:51;;;;;;;6.13;1.95;;;17.90;99.90;;;;;;5057736;28;20063;-63
2022/07/26 05:25:17;;;;;;;12.02;2.00;;;17.90;99.90;;;;;;5060500;28;20033;-64
2022/07/26 05:27:43;;;;;;;7.35;1.98;;;17.90;99.90;;;;;;5060324;28;20098;-62
2022/07/26 05:30:09;;;;;;;8.80;1.80;;;17.90;99.90;;;;;;5061550;28;20033;-63
2022/07/26 05:32:35;;;;;;;7.95;2.15;;;17.90;99.90;;;;;;5059327;28;20110;-63
2022/07/26 05:35:01;;;;;;;8.10;1.90;;;17.90;99.90;;;;;;5056327;28;20048;-62
2022/07/26 05:37:26;;;;;;;4.88;1.80;;;17.90;99.90;;;;;;5042861;28;20079;-62
2022/07/26 05:39:52;;;;;;;8.30;1.70;;;17.90;99.90;;;;;;5037882;28;20048;-64
2022/07/26 05:42:18;;;;;;;7.07;1.58;;;18.00;99.90;;;;;;5059845;28;20051;-63
2022/07/26 05:44:43;;;;;;;5.38;1.40;;;18.00;99.90;;;;;;5060546;28;20073;-62
2022/07/26 05:47:09;;;;;;;7.55;1.67;;;18.10;99.90;;;;;;5059507;28;20481;-62
2022/07/26 05:49:35;;;;;;;8.70;2.08;;;18.10;99.90;;;;;;5058975;28;20024;-62
2022/07/26 05:52:01;;;;;;;5.50;1.58;;;18.20;99.90;;;;;;5060917;28;20029;-63
2022/07/26 05:54:26;;;;;;;6.18;1.80;;;18.50;99.90;;;;;;5059985;28;20072;-63
2022/07/26 05:56:52;;;;;;;6.45;1.70;;;18.60;99.90;;;;;;5061414;28;20040;-64
2022/07/26 05:59:18;;;;;;;6.80;1.58;;;18.60;99.90;;;;;;5060811;28;20044;-63
2022/07/26 06:01:43;;;;;;;5.45;1.38;;;18.40;99.90;;;;;;5058985;28;20090;-63
2022/07/26 06:04:09;;;;;;;4.95;1.65;;;18.50;99.90;;;;;;5058496;28;20036;-63
2022/07/26 06:06:34;;;;;;;7.10;1.48;;;18.40;99.90;;;;;;5059525;28;20033;-64
2022/07/26 06:09:00;;;;;;;7.72;1.58;;;18.50;99.90;;;;;;5059103;28;20076;-63
2022/07/26 06:11:26;;;;;;;5.90;1.50;;;18.40;99.90;;;;;;5061342;28;21453;-65
2022/07/26 06:13:52;;;;;;;5.53;1.40;;;18.30;99.90;;;;;;5057925;28;20462;-65
2022/07/26 06:16:17;;;;;;;7.47;1.58;;;18.20;99.90;;;;;;5060269;28;20032;-63
2022/07/26 06:18:43;;;;;;;3.55;1.23;;;18.20;99.90;;;;;;5042950;28;20091;-63
2022/07/26 06:21:09;;;;;;;4.90;1.20;;;18.10;99.90;;;;;;5043073;28;20076;-63
2022/07/26 06:23:34;;;;;;;5.68;1.38;;;18.10;99.90;;;;;;5076327;28;20346;-63
2022/07/26 06:26:01;;;;;;;3.42;1.00;;;18.10;99.90;;;;;;5071654;28;20243;-63
2022/07/26 06:28:28;;;;;;;2.45;1.10;;;18.10;99.90;;;;;;5074392;28;20048;-63
2022/07/26 06:30:53;;;;;;;4.53;1.23;;;18.20;99.90;;;;;;5072029;28;20063;-63
2022/07/26 06:33:19;;;;;;;5.80;1.25;;;18.30;99.90;;;;;;5055496;28;20201;-63
2022/07/26 06:35:45;;;;;;;5.05;1.38;;;18.40;99.90;;;;;;5058151;28;20029;-63
2022/07/26 06:38:10;;;;;;;4.15;1.35;;;18.40;99.90;;;;;;5041964;28;20456;-63
2022/07/26 06:40:36;;;;;;;3.90;0.88;;;18.40;99.90;;;;;;5055094;28;20123;-63
2022/07/26 06:43:02;;;;;;;6.90;1.08;;;18.40;99.90;;;;;;5076028;28;20043;-63
2022/07/26 06:45:29;;;;;;;3.42;0.93;;;18.50;99.90;;;;;;5057837;28;20040;-63
2022/07/26 06:47:55;;;;;;;2.05;0.73;;;18.60;99.90;;;;;;5060239;28;20123;-64
2022/07/26 06:50:21;;;;;;;3.90;1.25;;;18.60;99.90;;;;;;5053987;28;20449;-63
2022/07/26 06:52:46;;;;;;;5.32;1.08;;;18.60;99.90;;;;;;5056446;28;20150;-64
2022/07/26 06:55:12;;;;;;;8.52;1.38;;;18.60;99.90;;;;;;5071147;28;20116;-64
2022/07/26 06:57:38;;;;;;;6.20;1.30;;;18.70;99.90;;;;;;5072458;28;20032;-63
2022/07/26 07:00:07;;;;;;;3.15;0.95;;;18.70;99.90;;;;;;5061471;28;20028;-64
2022/07/26 07:02:33;;;;;;;5.95;1.13;;;18.90;99.90;;;;;;5074153;28;20093;-63
2022/07/26 07:04:59;;;;;;;5.10;1.20;;;18.90;99.90;;;;;;5073857;28;20028;-64
2022/07/26 07:07:25;;;;;;;4.13;0.90;;;18.90;99.90;;;;;;5042047;28;20053;-64
2022/07/26 07:09:51;;;;;;;6.47;1.63;;;18.80;99.90;;;;;;5074669;28;20104;-63
2022/07/26 07:12:16;;;;;;;4.10;0.90;;;18.60;99.90;;;;;;5076589;28;20039;-63
2022/07/26 07:14:42;;;;;;;4.13;1.27;;;18.40;99.90;;;;;;5074179;28;20464;-63
2022/07/26 07:17:08;;;;;;;3.67;1.20;;;18.20;99.90;;;;;;5058101;28;20488;-63
2022/07/26 07:19:35;;;;;;;6.55;1.30;;;18.10;99.90;;;;;;5056490;28;20497;-63
2022/07/26 07:22:02;;;;;;;3.80;0.90;;;18.10;99.90;;;;;;5058322;28;20063;-64
2022/07/26 07:24:28;;;;;;;4.72;0.90;;;18.20;99.90;;;;;;5059611;28;20044;-64
2022/07/26 07:26:54;;;;;;;4.68;1.05;;;18.20;99.90;;;;;;5076899;28;20044;-65
2022/07/26 07:29:19;;;;;;;5.68;1.00;;;18.20;99.90;;;;;;5062205;28;20045;-64
2022/07/26 07:31:48;;;;;;;3.00;1.00;;;18.30;99.90;;;;;;5073383;28;20035;-64
2022/07/26 07:34:15;;;;;;;4.38;1.15;;;18.50;99.90;;;;;;5054047;28;20028;-64
2022/07/26 07:36:41;;;;;;;4.47;0.80;;;18.70;99.90;;;;;;5060264;28;20465;-64
2022/07/26 07:39:06;;;;;;;3.33;0.77;;;18.80;99.90;;;;;;5060102;28;20098;-63
2022/07/26 07:41:33;;;;;;;4.15;1.05;;;18.90;99.90;;;;;;5060394;28;20372;-64
2022/07/26 07:43:59;;;;;;;3.47;0.80;;;18.90;99.90;;;;;;5059061;28;20082;-64
2022/07/26 07:46:25;;;;;;;4.35;1.17;;;19.10;99.90;;;;;;5080435;28;20123;-63
2022/07/26 07:48:52;;;;;;;4.65;1.10;;;19.30;99.90;;;;;;5057070;28;20108;-64
2022/07/26 07:51:18;;;;;;;6.78;1.30;;;19.40;99.90;;;;;;5059023;28;20045;-63
2022/07/26 07:53:43;;;;;;;3.58;0.75;;;19.50;99.90;;;;;;5077294;28;20039;-64
2022/07/26 07:56:09;;;;;;;3.60;0.73;;;19.30;99.90;;;;;;5061012;28;20040;-63
2022/07/26 07:58:35;;;;;;;3.72;0.90;;;19.20;99.90;;;;;;5078575;28;20039;-64
2022/07/26 08:01:01;;;;;;;5.53;1.10;;;19.20;99.90;;;;;;5049030;28;20028;-63
2022/07/26 08:03:28;;;;;;;3.30;0.85;;;19.30;99.90;;;;;;5082358;28;20101;-63
2022/07/26 08:05:53;;;;;;;6.00;1.60;;;19.30;99.90;;;;;;5054842;28;20071;-63
2022/07/26 08:08:19;;;;;;;4.63;1.15;;;19.30;99.90;;;;;;5076197;28;20036;-63
2022/07/26 08:10:45;;;;;;;6.45;1.00;;;19.50;99.90;;;;;;5058362;28;20044;-63
2022/07/26 08:13:10;;;;;;;3.75;0.80;;;19.80;99.90;;;;;;5042603;28;20043;-64
2022/07/26 08:15:36;;;;;;;3.15;1.00;;;20.10;99.90;;;;;;5059032;28;20425;-64
2022/07/26 08:18:02;;;;;;;2.00;0.80;;;20.40;99.90;;;;;;5074732;28;20120;-62
2022/07/26 08:20:28;;;;;;;4.70;0.90;;;20.50;99.90;;;;;;5076760;28;20040;-63
2022/07/26 08:22:53;;;;;;;4.50;0.95;;;20.70;99.90;;;;;;5079444;28;20051;-63
2022/07/26 08:25:19;;;;;;;4.03;1.05;;;20.60;99.90;;;;;;5075691;28;20131;-61
2022/07/26 08:27:45;;;;;;;3.70;1.10;;;20.60;99.90;;;;;;5075284;28;20037;-63
2022/07/26 08:30:12;;;;;;;5.38;0.90;;;20.60;99.90;;;;;;5073975;28;20052;-62
2022/07/26 08:32:37;;;;;;;6.13;0.80;;;20.70;99.90;;;;;;5058021;28;20101;-63
2022/07/26 08:35:04;;;;;;;3.50;0.90;;;20.70;99.90;;;;;;5076732;28;20032;-62
2022/07/26 08:37:29;;;;;;;3.80;0.93;;;20.80;99.90;;;;;;5057922;28;20063;-62
2022/07/26 08:39:55;;;;;;;6.03;1.40;;;20.80;99.90;;;;;;5097850;28;20059;-63
2022/07/26 08:42:21;;;;;;;2.83;0.68;;;20.70;99.90;;;;;;5098010;28;20092;-62
2022/07/26 08:44:47;;;;;;;4.75;1.27;;;20.50;99.90;;;;;;5098120;28;20401;-63
2022/07/26 08:47:15;;;;;;;5.57;1.00;;;20.30;99.90;;;;;;5080008;28;20044;-62
2022/07/26 08:49:42;;;;;;;2.28;1.00;;;20.00;99.90;;;;;;5095068;28;20082;-63
2022/07/26 08:52:09;;;;;;;4.00;1.15;;;19.80;99.90;;;;;;5094622;28;20062;-64
2022/07/26 08:54:35;;;;;;;5.07;1.13;;;19.50;99.90;;;;;;5099741;28;20024;-63
2022/07/26 08:57:01;;;;;;;8.23;1.73;;;19.20;99.90;;;;;;5092747;28;20024;-63
2022/07/26 08:59:27;;;;;;;5.50;1.20;;;19.20;99.90;;;;;;5097314;28;20050;-64
2022/07/26 09:02:04;;;;;;;6.20;1.17;;;19.20;99.90;;;;;;5095706;28;20029;-63
2022/07/26 09:04:31;;;;;;;6.28;1.70;;;19.40;99.90;;;;;;5095630;28;20035;-62
2022/07/26 09:07:01;;;;;;;5.05;1.10;;;19.50;99.90;;;;;;5080868;28;20452;-64
2022/07/26 09:09:29;;;;;;;4.55;1.25;;;19.50;99.90;;;;;;5096694;28;20131;-62
2022/07/26 09:11:56;;;;;;;3.63;1.48;;;19.90;99.90;;;;;;5095699;28;20369;-63
2022/07/26 09:14:21;;;;;;;6.95;1.10;;;20.30;99.90;;;;;;5094982;28;20401;-62
2022/07/26 09:16:58;;;;;;;3.30;0.90;;;20.50;99.90;;;;;;5079638;28;20500;-64
2022/07/26 09:19:26;;;;;;;4.32;1.05;;;20.70;99.90;;;;;;5078313;28;20100;-62
2022/07/26 09:21:52;;;;;;;3.85;1.30;;;20.70;99.90;;;;;;5092986;28;20028;-63
2022/07/26 09:24:44;;;;;;;6.72;1.40;;;21.00;99.90;;;;;;5098121;28;20113;-62
2022/07/26 09:27:12;;;;;;;3.08;1.40;;;21.10;99.90;;;;;;5096060;28;20029;-63
2022/07/26 09:29:53;;;;;;;6.35;1.35;;;21.10;99.90;;;;;;5064351;28;20456;-63
2022/07/26 09:32:21;;;;;;;5.93;1.00;;;21.20;99.90;;;;;;5094772;28;20050;-64
2022/07/26 09:34:57;;;;;;;5.13;1.40;;;21.30;99.90;;;;;;5097379;28;20047;-62
2022/07/26 09:37:37;;;;;;;5.20;1.45;;;21.10;99.90;;;;;;5078174;28;20479;-63
2022/07/26 09:40:08;;;;;;;5.13;1.55;;;21.10;99.90;;;;;;5094525;28;20039;-62
2022/07/26 09:42:34;;;;;;;6.43;1.65;;;21.10;99.90;;;;;;5096362;28;20036;-62
2022/07/26 09:45:00;;;;;;;4.25;1.20;;;21.10;99.90;;;;;;5095191;28;20089;-64
2022/07/26 09:47:38;;;;;;;8.45;1.38;;;21.20;99.90;;;;;;5078432;28;20051;-62
2022/07/26 09:50:19;;;;;;;2.38;0.75;;;21.10;99.90;;;;;;5094068;28;20036;-62
2022/07/26 09:53:10;;;;;;;6.97;1.73;;;21.10;99.90;;;;;;5094654;28;20067;-63
2022/07/26 09:55:54;;;;;;;8.27;1.40;;;21.00;99.90;;;;;;5089603;28;20070;-62
2022/07/26 09:58:21;;;;;;;;;;;21.00;99.90;;;;;;5094445;28;20177;-62
2022/07/26 10:00:47;;;;;;;5.45;1.30;;;20.70;99.90;;;;;;5079467;28;20397;-63
2022/07/26 10:03:13;;;;;;;4.43;1.10;;;20.70;99.90;;;;;;5074985;28;20046;-62
2022/07/26 10:05:39;;;;;;;3.95;0.95;;;20.60;99.90;;;;;;5095448;28;20048;-63
2022/07/26 10:08:06;;;;;;;4.75;1.40;;;20.60;99.90;;;;;;5095670;28;20028;-62
2022/07/26 10:10:44;;;;;;;4.32;1.10;;;20.70;99.90;;;;;;5092744;28;20036;-64
2022/07/26 10:13:10;;;;;;;7.57;1.30;;;20.80;99.90;;;;;;5097699;28;20042;-62
2022/07/26 10:15:46;;;;;;;6.53;1.10;;;20.70;99.90;;;;;;5094870;28;20032;-62
2022/07/26 10:18:36;;;;;;;3.40;1.30;;;20.70;99.90;;;;;;5093332;28;20036;-62
2022/07/26 10:21:22;;;;;;;8.35;1.55;;;20.70;99.90;;;;;;5076049;28;20043;-62
2022/07/26 10:23:55;;;;;;;7.93;2.05;;;20.70;99.90;;;;;;5078310;28;20064;-62
2022/07/26 10:26:35;;;;;;;6.72;1.98;;;20.40;99.90;;;;;;5093445;28;20097;-63
2022/07/26 10:29:16;;;;;;;8.80;2.13;;;20.10;99.90;;;;;;5098100;28;20115;-61
2022/07/26 10:32:11;;;;;;;10.48;2.10;;;20.00;99.90;;;;;;5056637;28;20046;-65
2022/07/26 10:34:39;;;;;;;8.90;2.05;;;19.80;99.90;;;;;;5095063;28;20039;-62
2022/07/26 10:37:26;;;;;;;6.38;1.50;;;19.60;99.90;;;;;;5094460;28;20028;-62
2022/07/26 10:40:16;;;;;;;8.57;1.95;;;19.60;99.90;;;;;;5075425;28;20031;-62
2022/07/26 10:42:43;;;;;;;7.57;1.75;;;19.40;99.90;;;;;;5080071;28;20036;-61
2022/07/26 10:45:20;;;;;;;4.97;1.27;;;19.50;99.90;;;;;;5094068;28;20400;-62
2022/07/26 10:48:10;;;;;;;9.90;1.92;;;19.50;99.90;;;;;;5093019;28;20057;-62
2022/07/26 10:50:36;;;;;;;9.05;1.83;;;19.70;99.90;;;;;;5092479;28;20123;-62
2022/07/26 10:53:03;;;;;;;7.53;2.28;;;19.70;99.90;;;;;;5093687;28;20452;-62
2022/07/26 10:55:29;;;;;;;8.27;1.98;;;19.90;99.90;;;;;;5075190;28;20067;-62
2022/07/26 10:57:54;;;;;;;5.82;1.80;;;20.10;99.90;;;;;;5079669;28;20044;-62
2022/07/26 11:00:25;;;;;;;11.68;2.10;;;20.50;99.90;;;;;;5101274;28;20035;-62
2022/07/26 11:02:56;;;;;;;8.98;2.10;;;21.00;99.90;;;;;;5083039;28;20111;-61
2022/07/26 11:05:28;;;;;;;7.10;1.98;;;21.10;99.90;;;;;;5100504;28;20028;-63
2022/07/26 11:08:00;;;;;;;5.65;1.48;;;21.00;99.90;;;;;;5099084;28;20035;-62
2022/07/26 11:10:34;;;;;;;9.70;1.92;;;20.90;99.90;;;;;;5099490;28;20028;-62
2022/07/26 11:13:18;;;;;;;5.32;1.65;;;20.70;99.90;;;;;;5099114;28;20073;-62
2022/07/26 11:15:49;;;;;;;9.82;1.75;;;20.70;99.90;;;;;;5098919;28;20097;-62
2022/07/26 11:18:18;;;;;;;4.32;1.70;;;20.80;99.90;;;;;;5075107;28;20115;-61
2022/07/26 11:20:46;;;;;;;11.20;2.22;;;20.60;99.90;;;;;;5080023;28;20045;-64
2022/07/26 11:23:28;;;;;;;8.10;2.05;;;20.70;99.90;;;;;;5077497;28;20048;-61
2022/07/26 11:26:03;;;;;;;9.27;2.20;;;20.90;99.90;;;;;;5092763;28;20094;-62
2022/07/26 11:28:28;;;;;;;10.68;2.25;;;20.90;99.90;;;;;;5099753;28;20078;-62
2022/07/26 11:30:59;;;;;;;10.88;1.92;;;20.80;99.90;;;;;;5079503;28;20185;-62
2022/07/26 11:33:35;;;;;;;7.55;1.70;;;20.90;99.90;;;;;;5096083;28;20042;-63
2022/07/26 11:36:01;;;;;;;6.32;1.85;;;20.90;99.90;;;;;;5080967;28;20078;-62
2022/07/26 11:39:01;;;;;;;8.20;2.20;;;21.00;99.90;;;;;;5098764;28;20519;-62
2022/07/26 11:41:28;;;;;;;10.70;2.25;;;21.00;99.90;;;;;;5103404;28;20124;-62
2022/07/26 11:43:55;;;;;;;12.80;2.15;;;21.00;99.90;;;;;;5062446;28;20043;-62
2022/07/26 11:46:22;;;;;;;6.55;1.85;;;21.00;99.90;;;;;;5084376;28;20039;-64
2022/07/26 11:48:52;;;;;;;7.32;1.70;;;21.00;99.90;;;;;;5095217;28;20059;-62
2022/07/26 11:51:22;;;;;;;7.18;1.60;;;21.00;99.90;;;;;;5097329;28;20035;-62
2022/07/26 11:53:50;;;;;;;11.10;2.15;;;21.10;99.90;;;;;;5098014;28;20064;-62
2022/07/26 11:56:19;;;;;;;7.75;1.80;;;21.20;99.90;;;;;;5079377;28;20035;-63
2022/07/26 11:58:48;;;;;;;8.15;1.85;;;21.30;99.90;;;;;;5096706;28;20055;-63
2022/07/26 12:01:15;;;;;;;5.93;1.50;;;21.40;99.90;;;;;;5098464;28;20036;-63
2022/07/26 12:03:42;;;;;;;7.60;1.88;;;21.60;99.90;;;;;;5080152;28;20054;-62
2022/07/26 12:06:12;;;;;;;9.13;1.90;;;21.60;99.90;;;;;;5078427;28;20051;-62
2022/07/26 12:08:43;;;;;;;9.15;2.05;;;21.90;99.90;;;;;;5099024;28;20032;-62
2022/07/26 12:11:10;;;;;;;6.55;1.77;;;22.10;99.90;;;;;;5094338;28;20036;-62
2022/07/26 12:14:00;;;;;;;6.88;1.63;;;22.10;99.90;;;;;;5100301;28;20352;-61
2022/07/26 12:16:43;;;;;;;6.93;1.70;;;22.10;98.80;;;;;;5097368;28;20069;-62
2022/07/26 12:19:16;;;;;;;6.70;1.40;;;22.00;99.00;;;;;;5081067;28;20028;-62
2022/07/26 12:21:42;;;;;;;5.53;1.40;;;22.00;99.30;;;;;;5077516;28;20151;-61
2022/07/26 12:24:08;;;;;;;7.65;1.70;;;22.00;99.40;;;;;;5101467;28;20491;-61
2022/07/26 12:26:35;;;;;;;5.93;1.85;;;22.20;99.30;;;;;;5080554;28;20132;-61
2022/07/26 12:29:47;;;;;;;5.05;1.40;;;22.40;99.00;;;;;;5098108;28;20114;-62
2022/07/26 12:32:00;;;;;;;6.13;1.83;;;22.50;98.40;;;;;;5082790;28;20051;-62
2022/07/26 12:34:26;;;;;;;12.50;2.17;;;22.40;98.20;;;;;;5077834;28;20128;-63
2022/07/26 12:36:52;;;;;;;6.43;1.60;;;22.50;98.30;;;;;;5090892;28;20425;-62
2022/07/26 12:39:21;;;;;;;3.75;1.42;;;22.50;98.00;;;;;;5096947;28;20239;-62
2022/07/26 12:41:49;;;;;;;7.15;1.80;;;22.70;97.70;;;;;;5063201;28;20044;-61
2022/07/26 12:44:15;;;;;;;4.70;1.50;;;22.90;97.70;;;;;;5098002;28;20071;-61
2022/07/26 12:46:43;;;;;;;8.20;1.45;;;22.80;97.40;;;;;;5100050;28;20054;-62
2022/07/26 12:49:09;;;;;;;7.53;1.60;;;22.60;97.50;;;;;;5093693;28;20032;-62